Terminal Aerodrome Forecast
Issued by NWS

Current Version | Previous Version | Text Only | Print | Product List | Glossary On
Versions: 1 2 3 4 5 6 7 8 9 10 11 12 13 14 15 16 17
000
FTUS42 KKEY 010900 AAA
TAFMTH
TAF AMD
KMTH 010900Z 0109/0206 15005KT P6SM SCT022
     FM011400 VRB04KT P6SM SCT028=

USA.gov is the U.S. government's official web portal to all federal, state and local government web resources and services.